sensor_id;sensor_type;location;lat;lon;timestamp;temperature;humidity
16907;DHT22;8570;52.380;4.654;2023-08-01T00:01:34;17.50;99.90
16907;DHT22;8570;52.380;4.654;2023-08-01T00:06:38;17.40;99.90
16907;DHT22;8570;52.380;4.654;2023-08-01T00:11:39;17.40;99.90
16907;DHT22;8570;52.380;4.654;2023-08-01T00:16:41;17.40;99.90
16907;DHT22;8570;52.380;4.654;2023-08-01T00:21:45;17.30;99.90
16907;DHT22;8570;52.380;4.654;2023-08-01T00:26:47;17.40;99.90
16907;DHT22;8570;52.380;4.654;2023-08-01T00:31:49;17.30;99.90
16907;DHT22;8570;52.380;4.654;2023-08-01T00:36:53;17.30;99.90
16907;DHT22;8570;52.380;4.654;2023-08-01T00:41:55;17.30;99.90
16907;DHT22;8570;52.380;4.654;2023-08-01T00:46:59;17.30;99.90
16907;DHT22;8570;52.380;4.654;2023-08-01T00:52:03;17.30;99.90
16907;DHT22;8570;52.380;4.654;2023-08-01T00:57:08;17.30;99.90
16907;DHT22;8570;52.380;4.654;2023-08-01T01:02:11;17.30;99.90
16907;DHT22;8570;52.380;4.654;2023-08-01T01:07:15;17.30;99.90
16907;DHT22;8570;52.380;4.654;2023-08-01T01:12:18;17.30;99.90
16907;DHT22;8570;52.380;4.654;2023-08-01T01:17:20;17.30;99.90
16907;DHT22;8570;52.380;4.654;2023-08-01T01:22:24;17.30;99.90
16907;DHT22;8570;52.380;4.654;2023-08-01T01:27:27;17.30;99.90
16907;DHT22;8570;52.380;4.654;2023-08-01T01:32:30;17.30;99.90
16907;DHT22;8570;52.380;4.654;2023-08-01T01:37:34;17.30;99.90
16907;DHT22;8570;52.380;4.654;2023-08-01T01:42:36;17.30;99.90
16907;DHT22;8570;52.380;4.654;2023-08-01T01:47:38;17.20;99.90
16907;DHT22;8570;52.380;4.654;2023-08-01T01:52:46;17.10;99.90
16907;DHT22;8570;52.380;4.654;2023-08-01T01:57:48;17.10;99.90
16907;DHT22;8570;52.380;4.654;2023-08-01T02:02:50;17.00;99.90
16907;DHT22;8570;52.380;4.654;2023-08-01T02:07:54;17.10;99.90
16907;DHT22;8570;52.380;4.654;2023-08-01T02:12:56;17.10;99.90
16907;DHT22;8570;52.380;4.654;2023-08-01T02:17:58;17.10;99.90
16907;DHT22;8570;52.380;4.654;2023-08-01T02:23:01;17.10;99.90
16907;DHT22;8570;52.380;4.654;2023-08-01T02:28:04;17.10;99.90
16907;DHT22;8570;52.380;4.654;2023-08-01T02:33:06;17.10;99.90
16907;DHT22;8570;52.380;4.654;2023-08-01T02:38:09;17.10;99.90
16907;DHT22;8570;52.380;4.654;2023-08-01T02:43:11;17.10;99.90
16907;DHT22;8570;52.380;4.654;2023-08-01T02:48:13;17.10;99.90
16907;DHT22;8570;52.380;4.654;2023-08-01T02:53:16;17.10;99.90
16907;DHT22;8570;52.380;4.654;2023-08-01T02:58:18;17.10;99.90
16907;DHT22;8570;52.380;4.654;2023-08-01T03:03:21;17.20;99.90
16907;DHT22;8570;52.380;4.654;2023-08-01T03:08:24;17.20;99.90
16907;DHT22;8570;52.380;4.654;2023-08-01T03:13:26;17.10;99.90
16907;DHT22;8570;52.380;4.654;2023-08-01T03:18:30;17.10;99.90
16907;DHT22;8570;52.380;4.654;2023-08-01T03:23:34;17.10;99.90
16907;DHT22;8570;52.380;4.654;2023-08-01T03:28:37;17.20;99.90
16907;DHT22;8570;52.380;4.654;2023-08-01T03:33:39;17.10;99.90
16907;DHT22;8570;52.380;4.654;2023-08-01T03:38:43;17.10;99.90
16907;DHT22;8570;52.380;4.654;2023-08-01T03:43:45;17.10;99.90
16907;DHT22;8570;52.380;4.654;2023-08-01T03:48:47;17.10;99.90
16907;DHT22;8570;52.380;4.654;2023-08-01T03:53:51;17.10;99.90
16907;DHT22;8570;52.380;4.654;2023-08-01T03:58:53;17.00;99.90
16907;DHT22;8570;52.380;4.654;2023-08-01T04:03:55;17.00;99.90
16907;DHT22;8570;52.380;4.654;2023-08-01T04:08:59;17.00;99.90
16907;DHT22;8570;52.380;4.654;2023-08-01T04:14:04;17.00;99.90
16907;DHT22;8570;52.380;4.654;2023-08-01T04:19:06;17.00;99.90
16907;DHT22;8570;52.380;4.654;2023-08-01T04:24:09;16.90;99.90
16907;DHT22;8570;52.380;4.654;2023-08-01T04:29:11;16.80;99.90
16907;DHT22;8570;52.380;4.654;2023-08-01T04:34:16;16.80;99.90
16907;DHT22;8570;52.380;4.654;2023-08-01T04:39:19;16.70;99.90
16907;DHT22;8570;52.380;4.654;2023-08-01T04:44:21;16.70;99.90
16907;DHT22;8570;52.380;4.654;2023-08-01T04:49:23;16.70;99.90
16907;DHT22;8570;52.380;4.654;2023-08-01T04:54:27;16.70;99.90
16907;DHT22;8570;52.380;4.654;2023-08-01T04:59:29;16.70;99.90
16907;DHT22;8570;52.380;4.654;2023-08-01T05:04:31;16.70;99.90
16907;DHT22;8570;52.380;4.654;2023-08-01T05:09:34;16.70;99.90
16907;DHT22;8570;52.380;4.654;2023-08-01T05:14:36;16.70;99.90
16907;DHT22;8570;52.380;4.654;2023-08-01T05:19:38;16.70;99.90
16907;DHT22;8570;52.380;4.654;2023-08-01T05:24:42;16.70;99.90
16907;DHT22;8570;52.380;4.654;2023-08-01T05:29:44;16.70;99.90
16907;DHT22;8570;52.380;4.654;2023-08-01T05:34:46;16.70;99.90
16907;DHT22;8570;52.380;4.654;2023-08-01T05:39:49;16.70;99.90
16907;DHT22;8570;52.380;4.654;2023-08-01T05:44:51;16.70;99.90
16907;DHT22;8570;52.380;4.654;2023-08-01T05:49:53;16.70;99.90
16907;DHT22;8570;52.380;4.654;2023-08-01T05:54:57;16.70;99.90
16907;DHT22;8570;52.380;4.654;2023-08-01T05:59:59;16.70;99.90
16907;DHT22;8570;52.380;4.654;2023-08-01T06:05:01;16.70;99.90
16907;DHT22;8570;52.380;4.654;2023-08-01T06:10:05;16.70;99.90
16907;DHT22;8570;52.380;4.654;2023-08-01T06:15:07;16.70;99.90
16907;DHT22;8570;52.380;4.654;2023-08-01T06:20:12;16.70;99.90
16907;DHT22;8570;52.380;4.654;2023-08-01T06:25:15;16.80;99.90
16907;DHT22;8570;52.380;4.654;2023-08-01T06:30:17;16.90;99.90
16907;DHT22;8570;52.380;4.654;2023-08-01T06:35:21;16.90;99.90
16907;DHT22;8570;52.380;4.654;2023-08-01T06:40:25;17.00;99.90
16907;DHT22;8570;52.380;4.654;2023-08-01T06:45:27;17.00;99.90
16907;DHT22;8570;52.380;4.654;2023-08-01T06:50:29;17.10;99.90
16907;DHT22;8570;52.380;4.654;2023-08-01T06:55:32;17.10;99.90
16907;DHT22;8570;52.380;4.654;2023-08-01T07:00:34;17.20;99.90
16907;DHT22;8570;52.380;4.654;2023-08-01T07:05:36;17.20;99.90
16907;DHT22;8570;52.380;4.654;2023-08-01T07:10:42;17.20;99.90
16907;DHT22;8570;52.380;4.654;2023-08-01T07:15:47;17.20;99.90
16907;DHT22;8570;52.380;4.654;2023-08-01T07:20:59;17.20;99.90
16907;DHT22;8570;52.380;4.654;2023-08-01T07:26:02;17.30;99.90
16907;DHT22;8570;52.380;4.654;2023-08-01T07:31:07;17.30;99.90
16907;DHT22;8570;52.380;4.654;2023-08-01T07:36:09;17.30;99.90
16907;DHT22;8570;52.380;4.654;2023-08-01T07:41:12;17.20;99.90
16907;DHT22;8570;52.380;4.654;2023-08-01T07:46:14;17.10;99.90
16907;DHT22;8570;52.380;4.654;2023-08-01T07:51:16;17.10;99.90
16907;DHT22;8570;52.380;4.654;2023-08-01T07:56:20;17.00;99.90
16907;DHT22;8570;52.380;4.654;2023-08-01T08:01:24;17.10;99.90
16907;DHT22;8570;52.380;4.654;2023-08-01T08:06:26;17.20;99.90
16907;DHT22;8570;52.380;4.654;2023-08-01T08:11:30;17.40;99.90
16907;DHT22;8570;52.380;4.654;2023-08-01T08:16:32;17.40;99.90
16907;DHT22;8570;52.380;4.654;2023-08-01T08:21:33;17.50;99.90
16907;DHT22;8570;52.380;4.654;2023-08-01T08:26:37;17.50;99.90
16907;DHT22;8570;52.380;4.654;2023-08-01T08:31:49;17.60;99.90
16907;DHT22;8570;52.380;4.654;2023-08-01T08:36:52;17.70;99.90
16907;DHT22;8570;52.380;4.654;2023-08-01T08:41:55;17.80;99.90
16907;DHT22;8570;52.380;4.654;2023-08-01T08:47:06;17.90;99.90
16907;DHT22;8570;52.380;4.654;2023-08-01T08:52:09;18.10;99.90
16907;DHT22;8570;52.380;4.654;2023-08-01T08:57:14;18.20;99.90
16907;DHT22;8570;52.380;4.654;2023-08-01T09:02:28;18.30;99.90
16907;DHT22;8570;52.380;4.654;2023-08-01T09:07:33;18.50;99.90
16907;DHT22;8570;52.380;4.654;2023-08-01T09:12:44;18.50;99.90
16907;DHT22;8570;52.380;4.654;2023-08-01T09:17:50;18.50;99.90
16907;DHT22;8570;52.380;4.654;2023-08-01T09:22:52;18.40;99.90
16907;DHT22;8570;52.380;4.654;2023-08-01T09:28:18;18.40;99.90
16907;DHT22;8570;52.380;4.654;2023-08-01T09:33:23;18.40;99.90
16907;DHT22;8570;52.380;4.654;2023-08-01T09:38:25;18.60;99.90
16907;DHT22;8570;52.380;4.654;2023-08-01T09:43:35;18.70;99.90
16907;DHT22;8570;52.380;4.654;2023-08-01T09:48:38;18.90;99.90
16907;DHT22;8570;52.380;4.654;2023-08-01T09:53:48;18.90;99.90
16907;DHT22;8570;52.380;4.654;2023-08-01T09:58:53;18.80;99.90
16907;DHT22;8570;52.380;4.654;2023-08-01T10:03:56;18.70;99.90
16907;DHT22;8570;52.380;4.654;2023-08-01T10:08:59;18.70;99.90
16907;DHT22;8570;52.380;4.654;2023-08-01T10:14:04;18.60;99.90
16907;DHT22;8570;52.380;4.654;2023-08-01T10:19:06;18.40;99.90
16907;DHT22;8570;52.380;4.654;2023-08-01T10:24:10;18.50;99.90
16907;DHT22;8570;52.380;4.654;2023-08-01T10:29:14;18.70;99.90
16907;DHT22;8570;52.380;4.654;2023-08-01T10:34:17;18.60;99.90
16907;DHT22;8570;52.380;4.654;2023-08-01T10:39:21;18.60;99.90
16907;DHT22;8570;52.380;4.654;2023-08-01T10:44:25;18.60;99.90
16907;DHT22;8570;52.380;4.654;2023-08-01T10:49:35;18.60;99.90
16907;DHT22;8570;52.380;4.654;2023-08-01T10:54:38;18.50;99.90
16907;DHT22;8570;52.380;4.654;2023-08-01T10:59:43;18.20;99.90
16907;DHT22;8570;52.380;4.654;2023-08-01T11:04:55;18.00;99.90
16907;DHT22;8570;52.380;4.654;2023-08-01T11:10:08;18.00;99.90
16907;DHT22;8570;52.380;4.654;2023-08-01T11:15:13;18.40;99.90
16907;DHT22;8570;52.380;4.654;2023-08-01T11:20:17;18.50;99.90
16907;DHT22;8570;52.380;4.654;2023-08-01T11:25:19;18.60;99.90
16907;DHT22;8570;52.380;4.654;2023-08-01T11:30:30;18.70;99.90
16907;DHT22;8570;52.380;4.654;2023-08-01T11:35:32;18.80;99.90
16907;DHT22;8570;52.380;4.654;2023-08-01T11:40:34;19.00;99.90
16907;DHT22;8570;52.380;4.654;2023-08-01T11:45:48;18.90;99.90
16907;DHT22;8570;52.380;4.654;2023-08-01T11:50:56;19.00;99.90
16907;DHT22;8570;52.380;4.654;2023-08-01T11:55:58;19.20;99.90
16907;DHT22;8570;52.380;4.654;2023-08-01T12:01:06;19.40;99.90
16907;DHT22;8570;52.380;4.654;2023-08-01T12:06:09;19.30;99.90
16907;DHT22;8570;52.380;4.654;2023-08-01T12:11:23;19.40;99.90
16907;DHT22;8570;52.380;4.654;2023-08-01T12:16:29;19.50;99.90
16907;DHT22;8570;52.380;4.654;2023-08-01T12:21:32;19.60;99.90
16907;DHT22;8570;52.380;4.654;2023-08-01T12:26:34;19.60;99.90
16907;DHT22;8570;52.380;4.654;2023-08-01T12:31:37;19.50;99.90
16907;DHT22;8570;52.380;4.654;2023-08-01T12:36:39;19.30;99.90
16907;DHT22;8570;52.380;4.654;2023-08-01T12:41:41;19.10;99.90
16907;DHT22;8570;52.380;4.654;2023-08-01T12:46:45;18.90;99.90
16907;DHT22;8570;52.380;4.654;2023-08-01T12:51:46;18.60;99.90
16907;DHT22;8570;52.380;4.654;2023-08-01T12:56:48;18.40;99.90
16907;DHT22;8570;52.380;4.654;2023-08-01T13:01:52;18.20;99.90
16907;DHT22;8570;52.380;4.654;2023-08-01T13:06:54;18.00;99.90
16907;DHT22;8570;52.380;4.654;2023-08-01T13:11:56;17.90;99.90
16907;DHT22;8570;52.380;4.654;2023-08-01T13:17:03;17.80;99.90
16907;DHT22;8570;52.380;4.654;2023-08-01T13:22:05;17.50;99.90
16907;DHT22;8570;52.380;4.654;2023-08-01T13:27:07;17.30;99.90
16907;DHT22;8570;52.380;4.654;2023-08-01T13:32:11;17.20;99.90
16907;DHT22;8570;52.380;4.654;2023-08-01T13:37:13;17.00;99.90
16907;DHT22;8570;52.380;4.654;2023-08-01T13:42:15;16.80;99.90
16907;DHT22;8570;52.380;4.654;2023-08-01T13:47:18;16.90;99.90
16907;DHT22;8570;52.380;4.654;2023-08-01T13:52:20;16.90;99.90
16907;DHT22;8570;52.380;4.654;2023-08-01T13:57:22;17.00;99.90
16907;DHT22;8570;52.380;4.654;2023-08-01T14:02:26;17.20;99.90
16907;DHT22;8570;52.380;4.654;2023-08-01T14:07:29;17.60;99.90
16907;DHT22;8570;52.380;4.654;2023-08-01T14:12:31;17.80;99.90
16907;DHT22;8570;52.380;4.654;2023-08-01T14:17:35;18.00;99.90
16907;DHT22;8570;52.380;4.654;2023-08-01T14:22:37;18.20;99.90
16907;DHT22;8570;52.380;4.654;2023-08-01T14:27:39;18.40;99.90
16907;DHT22;8570;52.380;4.654;2023-08-01T14:32:42;18.60;99.90
16907;DHT22;8570;52.380;4.654;2023-08-01T14:37:44;18.60;99.90
16907;DHT22;8570;52.380;4.654;2023-08-01T14:42:48;18.80;99.90
16907;DHT22;8570;52.380;4.654;2023-08-01T14:47:54;18.90;99.90
16907;DHT22;8570;52.380;4.654;2023-08-01T14:52:56;18.90;99.90
16907;DHT22;8570;52.380;4.654;2023-08-01T14:57:58;18.90;99.90
16907;DHT22;8570;52.380;4.654;2023-08-01T15:03:02;18.80;99.90
16907;DHT22;8570;52.380;4.654;2023-08-01T15:08:04;18.50;99.90
16907;DHT22;8570;52.380;4.654;2023-08-01T15:13:06;18.30;99.90
16907;DHT22;8570;52.380;4.654;2023-08-01T15:18:09;18.10;99.90
16907;DHT22;8570;52.380;4.654;2023-08-01T15:23:11;18.00;99.90
16907;DHT22;8570;52.380;4.654;2023-08-01T15:28:14;18.20;99.90
16907;DHT22;8570;52.380;4.654;2023-08-01T15:33:18;18.30;99.90
16907;DHT22;8570;52.380;4.654;2023-08-01T15:38:20;18.40;99.90
16907;DHT22;8570;52.380;4.654;2023-08-01T15:43:23;18.60;99.90
16907;DHT22;8570;52.380;4.654;2023-08-01T15:48:27;18.70;99.90
16907;DHT22;8570;52.380;4.654;2023-08-01T15:53:28;18.60;99.90
16907;DHT22;8570;52.380;4.654;2023-08-01T15:58:30;18.60;99.90
16907;DHT22;8570;52.380;4.654;2023-08-01T16:03:35;18.50;99.90
16907;DHT22;8570;52.380;4.654;2023-08-01T16:08:38;18.40;99.90
16907;DHT22;8570;52.380;4.654;2023-08-01T16:13:39;18.30;99.90
16907;DHT22;8570;52.380;4.654;2023-08-01T16:18:43;18.30;99.90
16907;DHT22;8570;52.380;4.654;2023-08-01T16:23:45;18.30;99.90
16907;DHT22;8570;52.380;4.654;2023-08-01T16:28:47;18.30;99.90
16907;DHT22;8570;52.380;4.654;2023-08-01T16:33:50;18.40;99.90
16907;DHT22;8570;52.380;4.654;2023-08-01T16:38:52;18.40;99.90
16907;DHT22;8570;52.380;4.654;2023-08-01T16:43:55;18.40;99.90
16907;DHT22;8570;52.380;4.654;2023-08-01T16:48:58;18.20;99.90
16907;DHT22;8570;52.380;4.654;2023-08-01T16:54:00;17.90;99.90
16907;DHT22;8570;52.380;4.654;2023-08-01T16:59:03;17.70;99.90
16907;DHT22;8570;52.380;4.654;2023-08-01T17:04:06;17.60;99.90
16907;DHT22;8570;52.380;4.654;2023-08-01T17:09:08;17.60;99.90
16907;DHT22;8570;52.380;4.654;2023-08-01T17:14:10;17.50;99.90
16907;DHT22;8570;52.380;4.654;2023-08-01T17:19:14;17.50;99.90
16907;DHT22;8570;52.380;4.654;2023-08-01T17:24:16;17.40;99.90
16907;DHT22;8570;52.380;4.654;2023-08-01T17:29:18;17.50;99.90
16907;DHT22;8570;52.380;4.654;2023-08-01T17:34:21;17.60;99.90
16907;DHT22;8570;52.380;4.654;2023-08-01T17:39:23;17.60;99.90
16907;DHT22;8570;52.380;4.654;2023-08-01T17:44:25;17.60;99.90
16907;DHT22;8570;52.380;4.654;2023-08-01T17:49:28;17.60;99.90
16907;DHT22;8570;52.380;4.654;2023-08-01T17:54:30;17.70;99.90
16907;DHT22;8570;52.380;4.654;2023-08-01T17:59:35;17.70;99.90
16907;DHT22;8570;52.380;4.654;2023-08-01T18:04:43;17.70;99.90
16907;DHT22;8570;52.380;4.654;2023-08-01T18:09:45;17.70;99.90
16907;DHT22;8570;52.380;4.654;2023-08-01T18:14:47;17.70;99.90
16907;DHT22;8570;52.380;4.654;2023-08-01T18:19:50;17.70;99.90
16907;DHT22;8570;52.380;4.654;2023-08-01T18:24:52;17.80;99.90
16907;DHT22;8570;52.380;4.654;2023-08-01T18:29:54;17.80;99.90
16907;DHT22;8570;52.380;4.654;2023-08-01T18:34:57;17.80;99.90
16907;DHT22;8570;52.380;4.654;2023-08-01T18:40:00;17.80;99.90
16907;DHT22;8570;52.380;4.654;2023-08-01T18:45:07;17.80;99.90
16907;DHT22;8570;52.380;4.654;2023-08-01T18:50:10;17.80;99.90
16907;DHT22;8570;52.380;4.654;2023-08-01T18:55:12;17.80;99.90
16907;DHT22;8570;52.380;4.654;2023-08-01T19:00:14;17.80;99.90
16907;DHT22;8570;52.380;4.654;2023-08-01T19:05:18;17.80;99.90
16907;DHT22;8570;52.380;4.654;2023-08-01T19:10:20;17.80;99.90
16907;DHT22;8570;52.380;4.654;2023-08-01T19:15:21;17.80;99.90
16907;DHT22;8570;52.380;4.654;2023-08-01T19:20:25;17.80;99.90
16907;DHT22;8570;52.380;4.654;2023-08-01T19:25:27;17.80;99.90
16907;DHT22;8570;52.380;4.654;2023-08-01T19:30:29;17.80;99.90
16907;DHT22;8570;52.380;4.654;2023-08-01T19:35:40;17.80;99.90
16907;DHT22;8570;52.380;4.654;2023-08-01T19:40:42;17.80;99.90
16907;DHT22;8570;52.380;4.654;2023-08-01T19:45:48;17.80;99.90
16907;DHT22;8570;52.380;4.654;2023-08-01T19:50:51;17.80;99.90
16907;DHT22;8570;52.380;4.654;2023-08-01T19:55:54;17.80;99.90
16907;DHT22;8570;52.380;4.654;2023-08-01T20:00:57;17.80;99.90
16907;DHT22;8570;52.380;4.654;2023-08-01T20:06:02;17.80;99.90
16907;DHT22;8570;52.380;4.654;2023-08-01T20:11:05;17.80;99.90
16907;DHT22;8570;52.380;4.654;2023-08-01T20:16:07;17.80;99.90
16907;DHT22;8570;52.380;4.654;2023-08-01T20:21:10;17.80;99.90
16907;DHT22;8570;52.380;4.654;2023-08-01T20:26:12;17.80;99.90
16907;DHT22;8570;52.380;4.654;2023-08-01T20:31:14;17.80;99.90
16907;DHT22;8570;52.380;4.654;2023-08-01T20:36:17;17.80;99.90
16907;DHT22;8570;52.380;4.654;2023-08-01T20:41:19;17.80;99.90
16907;DHT22;8570;52.380;4.654;2023-08-01T20:46:21;17.80;99.90
16907;DHT22;8570;52.380;4.654;2023-08-01T20:51:24;17.80;99.90
16907;DHT22;8570;52.380;4.654;2023-08-01T20:56:26;17.80;99.90
16907;DHT22;8570;52.380;4.654;2023-08-01T21:01:28;17.80;99.90
16907;DHT22;8570;52.380;4.654;2023-08-01T21:06:34;17.80;99.90
16907;DHT22;8570;52.380;4.654;2023-08-01T21:11:36;17.80;99.90
16907;DHT22;8570;52.380;4.654;2023-08-01T21:16:37;17.80;99.90
16907;DHT22;8570;52.380;4.654;2023-08-01T21:21:41;17.80;99.90
16907;DHT22;8570;52.380;4.654;2023-08-01T21:26:46;17.80;99.90
16907;DHT22;8570;52.380;4.654;2023-08-01T21:31:48;17.80;99.90
16907;DHT22;8570;52.380;4.654;2023-08-01T21:36:52;17.80;99.90
16907;DHT22;8570;52.380;4.654;2023-08-01T21:41:54;17.80;99.90
16907;DHT22;8570;52.380;4.654;2023-08-01T21:46:55;17.80;99.90
16907;DHT22;8570;52.380;4.654;2023-08-01T21:51:59;17.80;99.90
16907;DHT22;8570;52.380;4.654;2023-08-01T21:57:01;17.70;99.90
16907;DHT22;8570;52.380;4.654;2023-08-01T22:02:03;17.70;99.90
16907;DHT22;8570;52.380;4.654;2023-08-01T22:07:06;17.70;99.90
16907;DHT22;8570;52.380;4.654;2023-08-01T22:12:08;17.70;99.90
16907;DHT22;8570;52.380;4.654;2023-08-01T22:17:10;17.70;99.90
16907;DHT22;8570;52.380;4.654;2023-08-01T22:22:14;17.60;99.90
16907;DHT22;8570;52.380;4.654;2023-08-01T22:27:17;17.60;99.90
16907;DHT22;8570;52.380;4.654;2023-08-01T22:32:19;17.50;99.90
16907;DHT22;8570;52.380;4.654;2023-08-01T22:37:22;17.40;99.90
16907;DHT22;8570;52.380;4.654;2023-08-01T22:42:24;17.40;99.90
16907;DHT22;8570;52.380;4.654;2023-08-01T22:47:26;17.30;99.90
16907;DHT22;8570;52.380;4.654;2023-08-01T22:52:29;17.20;99.90
16907;DHT22;8570;52.380;4.654;2023-08-01T22:57:31;17.20;99.90
16907;DHT22;8570;52.380;4.654;2023-08-01T23:02:33;17.10;99.90
16907;DHT22;8570;52.380;4.654;2023-08-01T23:07:37;17.10;99.90
16907;DHT22;8570;52.380;4.654;2023-08-01T23:12:39;17.00;99.90
16907;DHT22;8570;52.380;4.654;2023-08-01T23:17:42;17.00;99.90
16907;DHT22;8570;52.380;4.654;2023-08-01T23:22:45;16.90;99.90
16907;DHT22;8570;52.380;4.654;2023-08-01T23:27:47;16.90;99.90
16907;DHT22;8570;52.380;4.654;2023-08-01T23:32:52;16.90;99.90
16907;DHT22;8570;52.380;4.654;2023-08-01T23:37:55;16.90;99.90
16907;DHT22;8570;52.380;4.654;2023-08-01T23:42:58;16.90;99.90
16907;DHT22;8570;52.380;4.654;2023-08-01T23:48:00;16.90;99.90
16907;DHT22;8570;52.380;4.654;2023-08-01T23:53:04;16.90;99.90
16907;DHT22;8570;52.380;4.654;2023-08-01T23:58:06;16.90;99.90
